Time;durP1;ratioP1;P1;durP2;ratioP2;P2;SDS_P1;SDS_P2;PMS_P1;PMS_P2;Temp;Humidity;BMP_temperature;BMP_pressure;BME280_temperature;BME280_humidity;BME280_pressure;Samples;Min_cycle;Max_cycle;Signal;HPM_P1;HPM_P2
2022/01/29 00:00:59;;;;;;;119.80;66.85;;;;;;;-4.27;100.00;97477.34;5008552;28;20053;-61
2022/01/29 00:03:25;;;;;;;134.75;72.88;;;;;;;-4.28;99.90;97478.19;5011425;28;20028;-61
2022/01/29 00:05:52;;;;;;;151.43;82.40;;;;;;;-4.30;100.00;97483.31;5009444;28;20045;-61
2022/01/29 00:08:18;;;;;;;143.35;79.85;;;;;;;-4.28;100.00;97484.19;5011179;28;20040;-61
2022/01/29 00:10:45;;;;;;;125.03;69.15;;;;;;;-4.24;100.00;97480.72;5016040;28;20029;-61
2022/01/29 00:13:10;;;;;;;129.25;69.15;;;;;;;-4.18;100.00;97482.41;5011055;28;20022;-61
2022/01/29 00:15:36;;;;;;;115.93;66.55;;;;;;;-3.95;99.62;97479.75;5011075;28;20040;-61
2022/01/29 00:18:01;;;;;;;120.15;68.25;;;;;;;-3.95;100.00;97471.16;5011205;28;20133;-61
2022/01/29 00:20:27;;;;;;;123.05;69.13;;;;;;;-3.99;100.00;97478.03;5010894;28;20560;-61
2022/01/29 00:22:53;;;;;;;133.55;68.53;;;;;;;-4.01;100.00;97478.91;5011060;28;20032;-61
2022/01/29 00:25:18;;;;;;;112.68;68.57;;;;;;;-4.04;100.00;97475.50;5011423;28;20037;-61
2022/01/29 00:27:44;;;;;;;122.72;65.85;;;;;;;-4.02;100.00;97470.31;5010732;28;20512;-61
2022/01/29 00:30:16;;;;;;;113.95;62.05;;;;;;;-4.00;100.00;97460.88;5010928;28;20033;-61
2022/01/29 00:32:42;;;;;;;109.90;62.17;;;;;;;-4.04;100.00;97465.19;5011233;28;20092;-61
2022/01/29 00:35:09;;;;;;;116.68;60.67;;;;;;;-4.05;100.00;97466.06;5010724;28;20034;-61
2022/01/29 00:37:34;;;;;;;110.88;60.88;;;;;;;-4.07;100.00;97475.50;5007282;28;20034;-61
2022/01/29 00:39:59;;;;;;;108.55;60.97;;;;;;;-4.12;100.00;97464.38;5008759;28;20460;-61
2022/01/29 00:42:25;;;;;;;104.90;56.95;;;;;;;-4.16;100.00;97470.41;5010851;28;20033;-62
2022/01/29 00:44:51;;;;;;;101.00;60.08;;;;;;;-4.16;100.00;97465.25;5010599;28;20026;-61
2022/01/29 00:47:16;;;;;;;97.50;57.20;;;;;;;-4.15;100.00;97461.81;5010639;28;20033;-61
2022/01/29 00:49:42;;;;;;;108.97;61.47;;;;;;;-4.16;100.00;97465.25;5011070;28;20034;-61
2022/01/29 00:52:08;;;;;;;97.63;58.50;;;;;;;-4.13;100.00;97459.25;5010725;28;20034;-61
2022/01/29 00:54:34;;;;;;;94.15;57.92;;;;;;;-4.11;100.00;97460.09;5014612;28;20034;-61
2022/01/29 00:56:59;;;;;;;106.95;56.95;;;;;;;-4.05;100.00;97466.06;5014289;28;20045;-62
2022/01/29 00:59:25;;;;;;;118.45;60.58;;;;;;;-3.95;100.00;97468.56;5014392;28;20030;-62
2022/01/29 01:01:50;;;;;;;141.05;67.03;;;;;;;-3.94;100.00;97466.00;5014271;28;20551;-61
2022/01/29 01:04:15;;;;;;;120.30;61.38;;;;;;;-3.88;100.00;97462.50;5014381;28;20421;-61
2022/01/29 01:06:41;;;;;;;109.35;60.10;;;;;;;-3.86;100.00;97465.09;5014446;28;20026;-61
2022/01/29 01:09:06;;;;;;;110.07;57.65;;;;;;;-3.86;100.00;97465.97;5014551;28;20474;-61
2022/01/29 01:11:31;;;;;;;96.35;54.00;;;;;;;-3.81;100.00;97468.47;5014136;28;20058;-61
2022/01/29 01:13:57;;;;;;;88.25;51.38;;;;;;;-3.75;100.00;97464.16;5014045;28;20037;-62
2022/01/29 01:16:22;;;;;;;92.72;51.90;;;;;;;-3.65;100.00;97470.09;5014194;28;20038;-62
2022/01/29 01:18:48;;;;;;;108.97;55.30;;;;;;;-3.59;100.00;97479.50;5013853;28;20108;-62
2022/01/29 01:21:13;;;;;;;105.03;55.97;;;;;;;-3.52;100.00;97470.84;5012274;28;20080;-61
2022/01/29 01:23:39;;;;;;;97.78;52.42;;;;;;;-3.52;100.00;97475.16;5013976;28;20452;-61
2022/01/29 01:26:04;;;;;;;91.82;51.97;;;;;;;-3.49;100.00;97463.09;5011889;28;20117;-61
2022/01/29 01:28:30;;;;;;;87.32;51.33;;;;;;;-3.46;100.00;97459.66;5014334;28;20437;-61
2022/01/29 01:30:56;;;;;;;84.68;52.42;;;;;;;-3.47;100.00;97466.53;5013781;28;20481;-61
2022/01/29 01:33:21;;;;;;;92.55;55.17;;;;;;;-3.46;100.00;97463.06;5012532;28;20033;-61
2022/01/29 01:35:51;;;;;;;97.03;56.92;;;;;;;-3.40;100.00;97462.19;5013621;28;20054;-61
2022/01/29 01:38:24;;;;;;;84.03;51.67;;;;;;;-3.38;100.00;97459.59;5014303;28;20024;-61
2022/01/29 01:40:59;;;;;;;82.60;48.38;;;;;;;-3.33;100.00;97455.25;5013015;28;20542;-61
2022/01/29 01:43:24;;;;;;;78.63;48.83;;;;;;;-3.28;100.00;97448.34;5013911;28;20040;-61
2022/01/29 01:45:51;;;;;;;86.30;49.67;;;;;;;-3.25;100.00;97450.03;5013437;28;20026;-61
2022/01/29 01:48:16;;;;;;;84.70;50.67;;;;;;;-3.23;100.00;97450.88;5013657;28;20025;-62
2022/01/29 01:50:42;;;;;;;87.00;49.08;;;;;;;-3.20;100.00;97440.53;5013680;28;20076;-61
2022/01/29 01:53:08;;;;;;;86.57;49.15;;;;;;;-3.18;100.00;97449.09;5013524;28;20041;-61
2022/01/29 01:55:33;;;;;;;83.95;48.97;;;;;;;-3.21;100.00;97447.41;5022822;28;20022;-61
2022/01/29 01:57:59;;;;;;;80.60;50.17;;;;;;;-3.17;100.00;97446.53;5013836;28;20080;-61
2022/01/29 02:00:26;;;;;;;78.07;44.85;;;;;;;-3.12;100.00;97445.63;5013444;28;20025;-61
2022/01/29 02:02:51;;;;;;;79.85;48.85;;;;;;;-3.14;100.00;97443.06;5013104;28;20026;-60
2022/01/29 02:05:17;;;;;;;78.40;46.25;;;;;;;-3.16;100.00;97447.38;5013018;28;20695;-59
2022/01/29 02:07:43;;;;;;;79.05;48.55;;;;;;;-3.15;100.00;97440.50;5013206;28;20397;-59
2022/01/29 02:10:11;;;;;;;76.75;47.45;;;;;;;-3.09;100.00;97443.00;5013036;28;20072;-60
2022/01/29 02:12:50;;;;;;;73.78;45.53;;;;;;;-2.93;100.00;97434.28;5012981;28;20018;-59
2022/01/29 02:15:21;;;;;;;79.43;47.63;;;;;;;-2.95;100.00;97438.59;5005767;28;20117;-59
2022/01/29 02:17:47;;;;;;;78.80;42.47;;;;;;;-2.93;100.00;97433.41;5012731;28;20046;-59
2022/01/29 02:20:30;;;;;;;75.35;45.53;;;;;;;-2.91;100.00;97439.38;5013391;28;20126;-59
2022/01/29 02:22:56;;;;;;;80.90;46.35;;;;;;;-2.91;100.00;97429.06;5012843;28;20030;-60
2022/01/29 02:25:40;;;;;;;76.63;46.47;;;;;;;-2.93;100.00;97428.25;5012993;28;20076;-60
2022/01/29 02:28:09;;;;;;;76.13;46.55;;;;;;;-2.99;100.00;97423.16;5009564;28;20422;-59
2022/01/29 02:30:37;;;;;;;75.18;43.33;;;;;;;-3.02;100.00;97426.63;5012665;28;20026;-59
2022/01/29 02:33:06;;;;;;;72.18;43.22;;;;;;;-2.91;100.00;97423.91;5012601;28;20057;-59
2022/01/29 02:35:32;;;;;;;74.30;42.88;;;;;;;-2.89;100.00;97414.44;5012340;28;20469;-59
2022/01/29 02:37:58;;;;;;;74.60;44.72;;;;;;;-2.88;100.00;97403.25;5007720;28;20481;-59
2022/01/29 02:40:24;;;;;;;74.70;41.97;;;;;;;-2.85;100.00;97402.38;5018266;28;20505;-60
2022/01/29 02:42:53;;;;;;;69.65;42.30;;;;;;;-2.95;100.00;97404.22;5012114;28;20022;-60
2022/01/29 02:45:18;;;;;;;72.43;41.97;;;;;;;-3.02;100.00;97395.69;5012899;28;20022;-60
2022/01/29 02:47:44;;;;;;;68.80;41.03;;;;;;;-3.05;100.00;97399.16;5012341;28;20026;-60
2022/01/29 02:50:09;;;;;;;75.03;42.00;;;;;;;-3.09;100.00;97404.38;5012328;28;20026;-59
2022/01/29 02:52:35;;;;;;;69.80;42.83;;;;;;;-3.11;100.00;97399.22;5012556;28;20100;-60
2022/01/29 02:55:01;;;;;;;72.82;41.85;;;;;;;-3.11;100.00;97406.09;5017844;28;20054;-59
2022/01/29 02:57:27;;;;;;;69.30;42.13;;;;;;;-3.10;100.00;97406.06;5011992;28;20026;-60
2022/01/29 02:59:55;;;;;;;69.70;41.55;;;;;;;-3.10;100.00;97400.09;5012557;28;20033;-59
2022/01/29 03:02:20;;;;;;;80.18;41.65;;;;;;;-3.10;100.00;97398.34;5012398;28;20481;-59
2022/01/29 03:04:45;;;;;;;68.65;39.10;;;;;;;-3.09;100.00;97397.50;5012103;28;20033;-60
2022/01/29 03:07:11;;;;;;;80.07;41.50;;;;;;;-3.09;100.00;97397.50;5012108;28;20032;-59
2022/01/29 03:09:36;;;;;;;67.78;38.22;;;;;;;-3.10;100.00;97405.22;5007678;28;20033;-59
2022/01/29 03:12:02;;;;;;;75.97;40.60;;;;;;;-3.14;100.00;97398.41;5011714;28;20029;-60
2022/01/29 03:14:27;;;;;;;67.50;39.00;;;;;;;-3.15;100.00;97407.00;5010909;28;20033;-60
2022/01/29 03:16:53;;;;;;;71.35;40.10;;;;;;;-3.15;100.00;97407.84;5011114;28;20030;-60
2022/01/29 03:19:18;;;;;;;71.53;40.75;;;;;;;-3.11;100.00;97419.00;5011569;28;20076;-60
2022/01/29 03:21:43;;;;;;;70.25;40.55;;;;;;;-3.13;100.00;97428.47;5011802;28;20044;-60
2022/01/29 03:24:09;;;;;;;69.72;39.83;;;;;;;-3.19;100.00;97426.78;5011736;28;20113;-60
2022/01/29 03:26:34;;;;;;;82.18;43.60;;;;;;;-3.22;100.00;97421.66;5011667;28;20025;-60
2022/01/29 03:29:00;;;;;;;70.40;40.25;;;;;;;-3.14;100.00;97424.19;5010459;28;20022;-59
2022/01/29 03:31:26;;;;;;;80.10;40.53;;;;;;;-3.12;100.00;97430.16;5011515;28;20449;-60
2022/01/29 03:33:52;;;;;;;68.85;39.55;;;;;;;-3.06;100.00;97423.22;5011662;28;20038;-59
2022/01/29 03:36:18;;;;;;;67.72;38.35;;;;;;;-3.07;100.00;97418.09;5011521;28;20071;-59
2022/01/29 03:38:44;;;;;;;69.90;37.53;;;;;;;-3.06;100.00;97414.63;5011657;28;20104;-60
2022/01/29 03:41:12;;;;;;;77.28;40.15;;;;;;;-3.04;100.00;97413.75;5011301;28;20045;-59
2022/01/29 03:43:44;;;;;;;75.00;38.85;;;;;;;-3.12;100.00;97409.56;5011493;28;20109;-61
2022/01/29 03:46:10;;;;;;;70.93;41.45;;;;;;;-3.23;100.00;97402.75;5010217;28;20013;-59
2022/01/29 03:48:35;;;;;;;75.45;40.65;;;;;;;-3.33;100.00;97394.28;5011326;28;20410;-59
2022/01/29 03:51:01;;;;;;;70.03;38.42;;;;;;;-3.37;100.00;97382.28;5011401;28;20053;-60
2022/01/29 03:53:26;;;;;;;70.88;38.60;;;;;;;-3.34;100.00;97391.72;5011269;28;20039;-59
2022/01/29 03:55:51;;;;;;;75.88;40.65;;;;;;;-3.32;100.00;97388.28;5011613;28;20029;-60
2022/01/29 03:58:17;;;;;;;82.32;41.53;;;;;;;-3.23;100.00;97391.63;5011192;28;20059;-59
2022/01/29 04:00:42;;;;;;;85.70;43.50;;;;;;;-3.22;100.00;97375.28;5011229;28;20033;-60
2022/01/29 04:03:08;;;;;;;74.65;41.28;;;;;;;-3.31;100.00;97387.41;5010999;28;20467;-60
2022/01/29 04:05:33;;;;;;;73.88;38.42;;;;;;;-3.32;100.00;97384.84;5011047;28;20026;-59
2022/01/29 04:07:59;;;;;;;75.28;39.08;;;;;;;-3.43;100.00;97384.94;5011404;28;20072;-60
2022/01/29 04:10:27;;;;;;;68.05;37.58;;;;;;;-3.47;100.00;97391.84;5011319;28;20041;-60
2022/01/29 04:12:53;;;;;;;73.18;39.10;;;;;;;-3.50;100.00;97391.88;5010985;28;20041;-59
2022/01/29 04:15:18;;;;;;;72.47;38.30;;;;;;;-3.43;100.00;97392.66;5010867;28;20030;-59
2022/01/29 04:17:44;;;;;;;71.95;36.50;;;;;;;-3.19;100.00;97390.72;5010852;28;20044;-59
2022/01/29 04:20:10;;;;;;;74.55;38.00;;;;;;;-3.42;100.00;97384.06;5011105;28;20127;-60
2022/01/29 04:22:35;;;;;;;64.70;35.35;;;;;;;-3.33;100.00;97383.97;5010940;28;20537;-59
2022/01/29 04:25:00;;;;;;;59.75;34.83;;;;;;;-3.39;100.00;97383.19;5010875;28;20034;-59
2022/01/29 04:27:42;;;;;;;66.65;35.53;;;;;;;-3.43;100.00;97374.63;5013256;28;20029;-59
2022/01/29 04:30:13;;;;;;;64.82;37.35;;;;;;;-3.46;100.00;97375.50;5014945;28;20030;-59
2022/01/29 04:35:31;;;;;;;70.65;35.88;;;;;;;-3.46;100.00;97375.50;4998459;28;20041;-59
2022/01/29 04:37:56;;;;;;;68.65;34.90;;;;;;;-3.45;100.00;97379.78;5010100;28;20030;-60
2022/01/29 04:40:22;;;;;;;70.25;36.22;;;;;;;-3.45;100.00;97374.63;5014871;28;20398;-60
2022/01/29 04:42:48;;;;;;;64.97;37.70;;;;;;;-3.45;100.00;97378.94;5014664;28;20167;-59
2022/01/29 04:45:13;;;;;;;66.18;36.85;;;;;;;-3.49;100.00;97383.28;5013854;28;20114;-59
2022/01/29 04:47:42;;;;;;;68.55;37.45;;;;;;;-3.50;100.00;97378.16;5014875;28;20037;-60
2022/01/29 04:50:08;;;;;;;65.72;35.42;;;;;;;-3.48;100.00;97379.81;5014821;28;20026;-60
2022/01/29 04:52:33;;;;;;;70.13;37.28;;;;;;;-3.43;100.00;97376.34;5014548;28;20026;-60
2022/01/29 04:54:59;;;;;;;60.42;34.30;;;;;;;-3.45;100.00;97376.38;5014497;28;20048;-59
2022/01/29 04:57:24;;;;;;;72.80;37.83;;;;;;;-3.50;100.00;97371.25;5014457;28;20026;-59
2022/01/29 04:59:49;;;;;;;71.07;39.00;;;;;;;-3.40;100.00;97378.91;5014505;28;20057;-59
2022/01/29 05:02:15;;;;;;;66.90;37.63;;;;;;;-3.48;100.00;97372.09;5014234;28;20026;-59
2022/01/29 05:04:40;;;;;;;73.25;38.72;;;;;;;-3.47;100.00;97378.94;5014394;28;20554;-59
2022/01/29 05:07:05;;;;;;;70.38;36.67;;;;;;;-3.45;100.00;97379.78;5014541;28;20021;-60
2022/01/29 05:09:31;;;;;;;72.82;37.58;;;;;;;-3.42;100.00;97378.09;5014352;28;20045;-60
2022/01/29 05:11:59;;;;;;;69.35;36.65;;;;;;;-3.39;100.00;97386.63;5014463;28;20036;-60
2022/01/29 05:28:02;;;;;;;72.43;39.17;;;;;;;-3.30;100.00;97388.25;5010328;28;20041;-59
2022/01/29 05:30:28;;;;;;;78.80;40.40;;;;;;;-3.25;100.00;97385.63;5013809;28;20393;-59
2022/01/29 05:32:53;;;;;;;71.30;38.90;;;;;;;-3.30;100.00;97375.38;5013637;28;20033;-59
2022/01/29 05:35:18;;;;;;;72.45;38.92;;;;;;;-3.32;100.00;97390.00;5012252;28;20379;-59
2022/01/29 05:37:46;;;;;;;72.35;38.47;;;;;;;-3.29;100.00;97384.81;5013433;28;20057;-59
2022/01/29 05:40:11;;;;;;;80.78;39.30;;;;;;;-3.29;100.00;97389.97;5013160;28;20037;-59
2022/01/29 05:42:37;;;;;;;87.10;41.58;;;;;;;-3.22;100.00;97389.00;5013520;28;20490;-59
2022/01/29 05:45:03;;;;;;;74.25;40.25;;;;;;;-3.31;100.00;97382.25;5013433;28;20022;-59
2022/01/29 05:47:29;;;;;;;78.90;40.17;;;;;;;-3.37;100.00;97384.88;5013515;28;20466;-60
2022/01/29 05:49:54;;;;;;;80.88;40.55;;;;;;;-3.26;100.00;97391.66;5013662;28;20030;-59
2022/01/29 05:52:19;;;;;;;82.65;41.65;;;;;;;-3.31;100.00;97394.28;5013266;28;20458;-60
2022/01/29 05:54:45;;;;;;;79.88;40.47;;;;;;;-3.29;100.00;97402.84;5013376;28;20037;-59
2022/01/29 05:57:10;;;;;;;81.55;40.80;;;;;;;-3.30;100.00;97398.56;5013358;28;20054;-60
2022/01/29 05:59:36;;;;;;;80.05;39.17;;;;;;;-3.34;100.00;97409.75;5013317;28;20026;-59
2022/01/29 06:02:02;;;;;;;77.43;40.83;;;;;;;-3.32;100.00;97406.31;5012976;28;20097;-59
2022/01/29 06:04:28;;;;;;;77.85;40.03;;;;;;;-3.30;100.00;97406.28;5013181;28;20042;-59
2022/01/29 06:06:53;;;;;;;78.35;37.85;;;;;;;-3.32;100.00;97415.75;5013191;28;20022;-60
2022/01/29 06:09:18;;;;;;;64.32;37.42;;;;;;;-3.33;100.00;97408.88;5013427;28;20057;-59
2022/01/29 06:11:44;;;;;;;67.75;37.50;;;;;;;-3.33;100.00;97409.72;5013027;28;20445;-59
2022/01/29 06:14:09;;;;;;;75.93;37.40;;;;;;;-3.35;100.00;97408.91;5011616;28;20037;-60
2022/01/29 06:16:35;;;;;;;71.43;36.45;;;;;;;-3.41;100.00;97421.00;5012987;28;20030;-60
2022/01/29 06:19:00;;;;;;;74.97;37.40;;;;;;;-3.43;100.00;97420.13;5013253;28;20100;-59
2022/01/29 06:21:26;;;;;;;76.28;38.30;;;;;;;-3.48;100.00;97425.34;5012799;28;20044;-59
2022/01/29 06:23:51;;;;;;;77.60;39.95;;;;;;;-3.48;100.00;97427.91;5012853;28;20026;-59
2022/01/29 06:26:17;;;;;;;79.93;42.10;;;;;;;-3.43;100.00;97438.16;5012841;28;20034;-59
2022/01/29 06:28:42;;;;;;;72.43;37.90;;;;;;;-3.34;100.00;97431.19;5013274;28;20017;-60
2022/01/29 06:31:09;;;;;;;71.30;37.25;;;;;;;-3.36;100.00;97444.97;5012514;28;20025;-60
2022/01/29 06:33:35;;;;;;;64.97;35.20;;;;;;;-3.47;100.00;97443.34;5012674;28;20108;-59
2022/01/29 06:36:00;;;;;;;69.03;35.75;;;;;;;-3.50;100.00;97445.09;5012505;28;20026;-60
2022/01/29 06:38:26;;;;;;;67.22;35.30;;;;;;;-3.54;100.00;97446.84;5008521;28;20030;-59
2022/01/29 06:40:52;;;;;;;75.03;37.50;;;;;;;-3.50;100.00;97437.38;5010779;28;20117;-59
2022/01/29 06:43:17;;;;;;;68.18;38.08;;;;;;;-3.58;100.00;97441.72;5012237;28;20036;-59
2022/01/29 06:45:44;;;;;;;65.82;37.33;;;;;;;-3.56;100.00;97442.56;5011680;28;20129;-60
2022/01/29 06:48:11;;;;;;;72.72;39.55;;;;;;;-3.54;100.00;97441.69;5012163;28;20026;-60
2022/01/29 06:50:37;;;;;;;66.95;36.58;;;;;;;-3.51;100.00;97445.97;5012696;28;20406;-59
2022/01/29 06:53:04;;;;;;;78.45;38.90;;;;;;;-3.57;100.00;97431.41;5012078;28;20401;-60
2022/01/29 06:55:29;;;;;;;73.82;39.78;;;;;;;-3.54;100.00;97439.13;5012017;28;20168;-60
2022/01/29 06:57:55;;;;;;;78.00;40.42;;;;;;;-3.58;100.00;97445.16;5012200;28;20053;-60
2022/01/29 07:00:20;;;;;;;76.93;37.53;;;;;;;-3.63;100.00;97442.63;5011786;28;20049;-60
2022/01/29 07:02:45;;;;;;;81.75;41.83;;;;;;;-3.67;100.00;97446.09;5012153;28;20095;-60
2022/01/29 07:05:12;;;;;;;81.30;39.78;;;;;;;-3.66;100.00;97452.06;5011198;28;20080;-59
2022/01/29 07:07:37;;;;;;;82.88;39.10;;;;;;;-3.60;100.00;97446.91;5007951;28;20076;-60
2022/01/29 07:10:04;;;;;;;75.68;39.78;;;;;;;-3.57;100.00;97458.88;5011172;28;20049;-60
2022/01/29 07:12:30;;;;;;;78.65;40.95;;;;;;;-3.57;100.00;97464.03;5008566;28;20030;-60
2022/01/29 07:14:55;;;;;;;71.25;38.53;;;;;;;-3.54;100.00;97461.41;5011683;28;20036;-59
2022/01/29 07:17:23;;;;;;;76.18;39.55;;;;;;;-3.54;100.00;97462.28;5011168;28;20061;-59
2022/01/29 07:19:50;;;;;;;66.80;38.08;;;;;;;-3.50;100.00;97465.72;5010947;28;20113;-60
2022/01/29 07:22:16;;;;;;;73.82;39.70;;;;;;;-3.52;100.00;97476.00;5010214;28;20028;-59
2022/01/29 07:24:42;;;;;;;70.72;38.00;;;;;;;-3.49;100.00;97480.28;5011525;28;20493;-59
2022/01/29 07:27:07;;;;;;;75.53;38.70;;;;;;;-3.32;100.00;97477.56;5010789;28;20037;-59
2022/01/29 07:29:33;;;;;;;83.72;40.70;;;;;;;-3.29;100.00;97482.69;5009907;28;20498;-59
2022/01/29 07:31:59;;;;;;;79.55;41.47;;;;;;;-3.27;100.00;97488.69;5010377;28;20026;-60
2022/01/29 07:34:26;;;;;;;78.55;40.42;;;;;;;-3.24;100.00;97491.22;5011329;28;20409;-59
2022/01/29 07:36:52;;;;;;;78.03;40.60;;;;;;;-3.18;100.00;97492.91;5010810;28;20048;-60
2022/01/29 07:39:18;;;;;;;91.68;49.03;;;;;;;-3.23;100.00;97497.25;5010518;28;20501;-59
2022/01/29 07:41:44;;;;;;;86.53;43.08;;;;;;;-3.33;100.00;97491.31;5010073;28;20378;-59
2022/01/29 07:44:10;;;;;;;80.50;41.70;;;;;;;-3.36;100.00;97492.19;4999225;28;20470;-59
2022/01/29 07:46:36;;;;;;;85.20;46.38;;;;;;;-3.34;100.00;97493.03;5009190;28;20075;-60
2022/01/29 07:49:01;;;;;;;85.38;40.80;;;;;;;-3.38;100.00;97490.50;5010247;28;20030;-61
2022/01/29 07:51:27;;;;;;;88.50;42.30;;;;;;;-3.36;100.00;97492.19;5009676;28;20121;-54
2022/01/29 07:53:52;;;;;;;73.13;39.05;;;;;;;-3.35;100.00;97498.22;5009214;28;20036;-56
2022/01/29 07:56:20;;;;;;;89.80;49.22;;;;;;;-3.39;100.00;97496.53;5002513;28;20038;-58
2022/01/29 07:58:46;;;;;;;72.57;41.92;;;;;;;-3.42;100.00;97499.97;5010150;28;20028;-57
2022/01/29 08:01:12;;;;;;;75.45;39.78;;;;;;;-3.43;100.00;97505.13;5008898;28;20225;-57
2022/01/29 08:03:38;;;;;;;68.68;36.78;;;;;;;-3.42;100.00;97501.72;5002551;28;20026;-57
2022/01/29 08:06:03;;;;;;;80.80;38.58;;;;;;;-3.47;100.00;97507.72;5010315;28;20604;-58
2022/01/29 08:08:28;;;;;;;78.10;39.47;;;;;;;-3.44;100.00;97514.59;5007735;28;20630;-59
2022/01/29 08:10:54;;;;;;;79.28;38.53;;;;;;;-3.40;100.00;97516.28;5006113;28;20026;-55
2022/01/29 08:13:19;;;;;;;76.90;39.53;;;;;;;-3.40;100.00;97515.44;5006007;28;20029;-55
2022/01/29 08:15:45;;;;;;;75.20;39.05;;;;;;;-3.35;100.00;97511.09;5010084;28;20022;-57
2022/01/29 08:18:10;;;;;;;79.93;39.88;;;;;;;-3.42;100.00;97515.44;5010107;28;20050;-57
2022/01/29 08:20:36;;;;;;;76.43;38.75;;;;;;;-3.45;100.00;97520.59;5010009;28;20489;-55
2022/01/29 08:23:07;;;;;;;76.90;39.22;;;;;;;-3.42;100.00;97518.00;5007683;28;20221;-55
2022/01/29 08:25:33;;;;;;;81.28;39.67;;;;;;;-3.31;100.00;97516.22;5008819;28;20065;-57
2022/01/29 08:27:59;;;;;;;78.45;40.38;;;;;;;-3.20;100.00;97505.81;5009862;28;20084;-57
2022/01/29 08:30:24;;;;;;;75.35;39.28;;;;;;;-3.23;100.00;97507.56;5010766;28;20072;-56
2022/01/29 08:32:49;;;;;;;84.50;42.08;;;;;;;-3.12;100.00;97512.63;5010078;28;20386;-57
2022/01/29 08:35:15;;;;;;;83.53;40.55;;;;;;;-3.10;100.00;97514.31;5010087;28;20018;-57
2022/01/29 08:37:41;;;;;;;79.38;41.47;;;;;;;-3.04;100.00;97516.84;5010038;28;20468;-55
2022/01/29 08:40:08;;;;;;;80.63;40.40;;;;;;;-3.00;100.00;97520.22;5009269;28;20109;-56
2022/01/29 08:42:33;;;;;;;80.75;40.92;;;;;;;-2.92;100.00;97517.59;5009799;28;20743;-57
2022/01/29 08:45:00;;;;;;;81.63;39.05;;;;;;;-2.91;100.00;97512.44;5007549;28;20029;-57
2022/01/29 08:47:25;;;;;;;74.15;39.83;;;;;;;-2.84;100.00;97509.78;5009728;28;20175;-57
2022/01/29 08:49:51;;;;;;;77.15;41.17;;;;;;;-2.73;100.00;97507.97;5009842;28;20533;-57
2022/01/29 08:52:16;;;;;;;73.85;41.08;;;;;;;-2.57;100.00;97510.38;5009409;28;20033;-58
2022/01/29 08:54:41;;;;;;;79.78;44.95;;;;;;;-2.46;100.00;97511.97;5007760;28;20069;-57
2022/01/29 08:57:07;;;;;;;70.05;40.03;;;;;;;-2.34;100.00;97512.72;5006943;28;20029;-57
2022/01/29 08:59:32;;;;;;;77.13;39.72;;;;;;;-2.23;100.00;97517.75;5008805;28;20026;-55
2022/01/29 09:01:58;;;;;;;73.47;40.05;;;;;;;-2.13;100.00;97519.31;5010695;28;20105;-57
2022/01/29 09:04:23;;;;;;;74.70;41.30;;;;;;;-2.07;100.00;97531.31;5007728;28;20191;-56
2022/01/29 09:06:49;;;;;;;82.22;41.25;;;;;;;-2.05;100.00;97526.97;5007299;28;20421;-58
2022/01/29 09:09:20;;;;;;;72.95;41.53;;;;;;;-2.01;100.00;97526.06;5007063;28;20038;-58
2022/01/29 09:11:46;;;;;;;68.95;38.88;;;;;;;-1.93;100.00;97533.72;5008479;28;20029;-57
2022/01/29 09:14:11;;;;;;;74.00;40.58;;;;;;;-1.75;100.00;97535.22;5009248;28;20088;-58
2022/01/29 09:16:36;;;;;;;74.53;45.83;;;;;;;-1.59;100.00;97526.38;5009114;28;20030;-57
2022/01/29 09:19:02;;;;;;;66.45;39.95;;;;;;;-1.34;99.68;97520.81;5012618;28;20624;-58
2022/01/29 09:21:27;;;;;;;70.30;40.00;;;;;;;-1.51;97.90;97531.41;5010899;28;20092;-58
2022/01/29 09:23:56;;;;;;;71.07;39.45;;;;;;;-1.43;98.86;97525.31;5013774;28;20045;-58
2022/01/29 09:26:22;;;;;;;86.72;49.53;;;;;;;-1.14;98.14;97524.00;5012271;28;20028;-59
2022/01/29 09:28:47;;;;;;;73.57;41.88;;;;;;;-0.98;96.68;97530.63;5012514;28;20029;-57
2022/01/29 09:31:13;;;;;;;106.85;60.25;;;;;;;-0.81;95.50;97522.56;5011427;28;21284;-58
2022/01/29 09:33:38;;;;;;;73.20;41.28;;;;;;;-0.71;94.48;97525.84;5013074;28;20030;-58
2022/01/29 09:36:04;;;;;;;65.55;38.38;;;;;;;-0.71;93.93;97525.84;5009837;28;20448;-58
2022/01/29 09:38:29;;;;;;;59.75;35.65;;;;;;;-0.49;94.08;97526.31;5010086;28;20060;-58
2022/01/29 09:40:55;;;;;;;66.80;38.85;;;;;;;-0.65;93.17;97519.72;5012051;28;20029;-57
2022/01/29 09:43:24;;;;;;;62.55;37.08;;;;;;;-0.72;92.62;97529.31;5011857;28;20030;-58
2022/01/29 09:45:51;;;;;;;63.40;37.55;;;;;;;-0.79;91.94;97527.69;5013286;28;20466;-58
2022/01/29 09:48:21;;;;;;;66.30;37.63;;;;;;;-0.57;93.33;97528.19;5012168;28;20026;-56
2022/01/29 09:50:47;;;;;;;64.68;39.25;;;;;;;-0.48;92.56;97527.16;5010767;28;20030;-58
2022/01/29 09:53:12;;;;;;;67.30;39.25;;;;;;;-0.31;91.05;97534.59;5012940;28;20026;-58
2022/01/29 09:55:38;;;;;;;62.95;39.05;;;;;;;-0.20;90.07;97531.81;5012633;28;20072;-59
2022/01/29 09:58:03;;;;;;;63.17;37.53;;;;;;;-0.25;90.45;97528.47;5012645;28;20018;-59
2022/01/29 10:00:29;;;;;;;61.17;40.15;;;;;;;-0.17;90.20;97522.25;5012493;28;20022;-59
2022/01/29 10:03:19;;;;;;;59.83;38.70;;;;;;;0.01;90.23;97537.44;5012864;28;20026;-59
2022/01/29 10:05:53;;;;;;;62.67;38.90;;;;;;;0.18;89.76;97537.94;5004047;28;20041;-59
2022/01/29 10:08:19;;;;;;;59.15;38.63;;;;;;;0.32;88.94;97529.88;5012494;28;20018;-59
2022/01/29 10:10:47;;;;;;;59.80;40.42;;;;;;;0.76;88.86;97523.72;5012820;28;20101;-59
2022/01/29 10:13:43;;;;;;;61.35;40.88;;;;;;;1.22;85.41;97516.56;5007773;28;20598;-59
2022/01/29 10:16:12;;;;;;;68.50;40.97;;;;;;;1.55;83.04;97525.22;4997327;28;20941;-59
2022/01/29 10:18:39;;;;;;;73.13;42.45;;;;;;;1.68;82.58;97517.94;5012011;28;20044;-60
2022/01/29 10:21:14;;;;;;;86.93;46.42;;;;;;;1.81;81.54;97513.25;5012682;28;20088;-58
2022/01/29 10:23:41;;;;;;;67.03;43.88;;;;;;;1.94;81.23;97523.28;5012078;28;20044;-59
2022/01/29 10:26:10;;;;;;;71.03;41.70;;;;;;;1.93;81.02;97519.84;5008952;28;20096;-59
2022/01/29 10:28:37;;;;;;;57.60;37.50;;;;;;;1.82;80.34;97517.56;5011491;28;20059;-60
2022/01/29 10:31:08;;;;;;;118.78;60.15;;;;;;;1.75;80.92;97515.16;5011549;28;20101;-59
2022/01/29 10:33:36;;;;;;;71.63;44.47;;;;;;;1.76;80.04;97511.66;5011706;28;20038;-61
2022/01/29 10:36:07;;;;;;;97.13;55.47;;;;;;;1.94;78.72;97515.50;5012037;28;20061;-60
2022/01/29 10:38:41;;;;;;;54.47;37.47;;;;;;;1.86;79.09;97515.69;5010531;28;20026;-59
2022/01/29 10:41:39;;;;;;;62.92;38.10;;;;;;;1.68;79.70;97517.94;5007882;28;20110;-58
2022/01/29 10:44:11;;;;;;;59.45;39.58;;;;;;;1.83;80.75;97508.00;5004147;28;20066;-59
2022/01/29 10:46:58;;;;;;;63.85;43.67;;;;;;;2.31;79.10;97497.97;5007611;28;20037;-60
2022/01/29 10:49:28;;;;;;;57.00;39.80;;;;;;;2.58;77.39;97507.53;5009929;28;20414;-59
2022/01/29 10:51:58;;;;;;;54.15;37.58;;;;;;;2.46;77.64;97507.91;5009567;28;20095;-60
2022/01/29 10:54:24;;;;;;;55.00;35.42;;;;;;;2.30;77.18;97507.53;5007504;28;20042;-60
2022/01/29 10:56:53;;;;;;;56.90;38.60;;;;;;;2.54;77.62;97502.47;5006999;28;20049;-60
2022/01/29 10:59:18;;;;;;;59.72;38.85;;;;;;;2.80;76.86;97493.00;5009028;28;20049;-60
2022/01/29 11:01:50;;;;;;;54.45;37.72;;;;;;;2.80;75.43;97487.78;5009197;28;20543;-60
2022/01/29 11:04:15;;;;;;;57.05;39.42;;;;;;;2.97;75.68;97477.69;5011037;28;20116;-61
2022/01/29 11:06:45;;;;;;;56.72;38.28;;;;;;;3.18;74.99;97469.19;5011718;28;20161;-60
2022/01/29 11:09:12;;;;;;;53.47;37.75;;;;;;;3.19;74.12;97466.56;5009843;28;20087;-60
2022/01/29 11:11:39;;;;;;;52.65;37.03;;;;;;;3.08;73.91;97459.09;5009183;28;20045;-60
2022/01/29 11:14:06;;;;;;;49.00;34.55;;;;;;;3.41;74.04;97452.78;5011395;28;20531;-61
2022/01/29 11:16:32;;;;;;;50.78;35.65;;;;;;;3.64;73.20;97461.53;5011097;28;20180;-61
2022/01/29 11:18:59;;;;;;;47.20;31.13;;;;;;;3.85;70.00;97454.66;5011007;28;20092;-61
2022/01/29 11:21:25;;;;;;;48.92;33.88;;;;;;;3.39;71.55;97439.81;5008876;28;20505;-62
2022/01/29 11:23:51;;;;;;;50.45;34.97;;;;;;;3.77;70.13;97446.31;5010420;28;20022;-60
2022/01/29 11:26:17;;;;;;;51.40;37.75;;;;;;;3.64;70.48;97445.91;5011483;28;20145;-61